createdAt,value
2018-06-21T00:02:20.303Z,99.90
2018-06-21T00:04:49.298Z,99.90
2018-06-21T00:09:53.647Z,99.90
2018-06-21T00:12:22.616Z,99.90
2018-06-21T00:14:51.602Z,99.90
2018-06-21T00:17:20.559Z,99.90
2018-06-21T00:19:49.507Z,99.90
2018-06-21T00:22:18.451Z,99.90
2018-06-21T00:24:47.446Z,99.90
2018-06-21T00:27:16.487Z,99.90
2018-06-21T00:29:45.442Z,99.90
2018-06-21T00:32:14.419Z,99.90
2018-06-21T00:34:43.390Z,99.90
2018-06-21T00:37:12.362Z,99.90
2018-06-21T00:39:41.369Z,99.90
2018-06-21T00:42:10.358Z,99.90
2018-06-21T00:44:39.294Z,99.90
2018-06-21T00:47:08.294Z,99.90
2018-06-21T00:49:37.311Z,99.90
2018-06-21T00:52:06.313Z,99.90
2018-06-21T00:54:35.299Z,99.90
2018-06-21T00:57:04.299Z,99.90
2018-06-21T00:59:33.246Z,99.90
2018-06-21T01:02:02.190Z,99.90
2018-06-21T01:04:31.142Z,99.90
2018-06-21T01:07:00.082Z,99.90
2018-06-21T01:09:29.103Z,99.90
2018-06-21T01:11:58.043Z,99.90
2018-06-21T01:14:27.056Z,99.90
2018-06-21T01:16:56.182Z,99.90
2018-06-21T01:19:25.249Z,99.90
2018-06-21T01:21:54.174Z,99.90
2018-06-21T01:24:23.655Z,99.90
2018-06-21T01:26:52.736Z,99.90
2018-06-21T01:29:21.806Z,99.90
2018-06-21T01:31:50.822Z,99.90
2018-06-21T01:34:19.789Z,99.90
2018-06-21T01:36:48.754Z,99.90
2018-06-21T01:39:17.723Z,99.90
2018-06-21T01:41:46.667Z,99.90
2018-06-21T01:44:15.634Z,99.90
2018-06-21T01:46:44.635Z,99.90
2018-06-21T01:49:13.637Z,99.90
2018-06-21T01:51:42.598Z,99.90
2018-06-21T01:54:11.627Z,99.90
2018-06-21T01:56:40.582Z,99.90
2018-06-21T01:59:09.594Z,99.90
2018-06-21T02:01:41.530Z,99.90
2018-06-21T02:04:10.545Z,99.90
2018-06-21T02:06:39.573Z,99.90
2018-06-21T02:09:09.178Z,99.90
2018-06-21T02:11:38.145Z,99.90
2018-06-21T02:14:07.115Z,99.90
2018-06-21T02:16:36.087Z,99.90
2018-06-21T02:19:05.217Z,99.90
2018-06-21T02:21:34.199Z,99.90
2018-06-21T02:24:03.226Z,99.90
2018-06-21T02:26:32.196Z,99.90
2018-06-21T02:29:01.155Z,99.90
2018-06-21T02:31:30.326Z,99.90
2018-06-21T02:33:59.283Z,99.90
2018-06-21T02:36:28.266Z,99.90
2018-06-21T02:38:57.255Z,99.90
2018-06-21T02:41:26.263Z,99.90
2018-06-21T02:43:56.582Z,99.90
2018-06-21T02:46:25.568Z,99.90
2018-06-21T02:48:54.609Z,99.90
2018-06-21T02:51:23.559Z,99.90
2018-06-21T02:53:52.510Z,99.90
2018-06-21T02:56:21.503Z,99.90
2018-06-21T02:58:50.459Z,99.90
2018-06-21T03:01:19.453Z,99.90
2018-06-21T03:03:48.449Z,99.90
2018-06-21T03:06:17.430Z,99.90
2018-06-21T03:08:46.415Z,99.90
2018-06-21T03:11:15.392Z,99.90
2018-06-21T03:13:44.377Z,99.90
2018-06-21T03:16:13.442Z,99.90
2018-06-21T03:18:42.435Z,99.90
2018-06-21T03:21:11.446Z,99.90
2018-06-21T03:23:40.395Z,99.90
2018-06-21T03:26:09.379Z,99.90
2018-06-21T03:28:38.438Z,99.90
2018-06-21T03:31:07.435Z,99.90
2018-06-21T03:33:36.440Z,99.90
2018-06-21T03:36:05.752Z,99.90
2018-06-21T03:38:34.734Z,99.90
2018-06-21T03:41:03.755Z,99.90
2018-06-21T03:43:32.774Z,99.90
2018-06-21T03:46:01.767Z,99.90
2018-06-21T03:48:30.721Z,99.90
2018-06-21T03:50:59.747Z,99.90
2018-06-21T03:53:28.719Z,99.90
2018-06-21T03:55:57.681Z,99.90
2018-06-21T03:58:26.759Z,99.90
2018-06-21T04:00:55.729Z,99.90
2018-06-21T04:03:24.758Z,99.90
2018-06-21T04:05:53.808Z,99.90
2018-06-21T04:08:22.753Z,99.90
2018-06-21T04:10:51.700Z,99.90
2018-06-21T04:13:20.738Z,99.90
2018-06-21T04:15:49.767Z,99.90
2018-06-21T04:18:23.215Z,99.90
2018-06-21T04:20:52.254Z,99.90
2018-06-21T04:23:21.298Z,99.90
2018-06-21T04:25:50.274Z,99.90
2018-06-21T04:28:19.315Z,99.90
2018-06-21T04:30:48.276Z,99.90
2018-06-21T04:33:17.262Z,99.90
2018-06-21T04:35:46.207Z,99.90
2018-06-21T04:38:15.213Z,99.90
2018-06-21T04:40:44.461Z,99.90
2018-06-21T04:43:13.514Z,99.90
2018-06-21T04:45:42.521Z,99.90
2018-06-21T04:48:11.706Z,99.90
2018-06-21T04:50:40.759Z,99.90
2018-06-21T04:53:09.759Z,99.90
2018-06-21T04:55:38.848Z,99.90
2018-06-21T04:58:08.007Z,99.90
2018-06-21T05:00:37.035Z,99.90
2018-06-21T05:03:08.976Z,99.90
2018-06-21T05:05:38.122Z,99.90
2018-06-21T05:08:07.086Z,99.90
2018-06-21T05:10:36.220Z,99.90
2018-06-21T05:13:05.197Z,99.90
2018-06-21T05:15:35.023Z,99.90
2018-06-21T05:18:04.105Z,99.90
2018-06-21T05:20:33.134Z,99.90
2018-06-21T05:23:02.210Z,99.90
2018-06-21T05:25:31.414Z,99.90
2018-06-21T05:28:00.387Z,99.90
2018-06-21T05:30:29.352Z,99.90
2018-06-21T05:32:58.320Z,99.90
2018-06-21T05:35:27.271Z,99.90
2018-06-21T05:37:56.265Z,99.90
2018-06-21T05:40:31.085Z,99.90
2018-06-21T05:43:01.050Z,99.90
2018-06-21T05:45:30.075Z,99.90
2018-06-21T05:48:00.487Z,99.90
2018-06-21T05:50:30.647Z,99.90
2018-06-21T05:52:59.999Z,99.90
2018-06-21T05:55:30.010Z,99.90
2018-06-21T05:57:59.246Z,99.90
2018-06-21T06:00:28.386Z,99.90
2018-06-21T06:02:57.409Z,99.90
2018-06-21T06:05:26.391Z,99.90
2018-06-21T06:07:55.387Z,99.90
2018-06-21T06:10:24.390Z,99.90
2018-06-21T06:12:53.383Z,99.90
2018-06-21T06:15:22.411Z,99.90
2018-06-21T06:17:51.419Z,99.90
2018-06-21T06:20:20.464Z,99.90
2018-06-21T06:22:49.564Z,99.90
2018-06-21T06:25:18.590Z,99.90
2018-06-21T06:27:47.557Z,99.90
2018-06-21T06:30:16.566Z,99.90
2018-06-21T06:32:45.582Z,99.90
2018-06-21T06:35:14.534Z,99.90
2018-06-21T06:37:43.499Z,99.90
2018-06-21T06:40:12.518Z,99.90
2018-06-21T06:42:41.876Z,99.90
2018-06-21T06:45:10.904Z,99.90
2018-06-21T06:47:39.990Z,99.90
2018-06-21T06:50:09.010Z,99.90
2018-06-21T06:52:37.993Z,99.90
2018-06-21T06:55:07.175Z,99.90
2018-06-21T06:57:36.214Z,99.90
2018-06-21T07:00:05.674Z,99.90
2018-06-21T07:02:34.674Z,99.90
2018-06-21T07:05:03.769Z,99.90
2018-06-21T07:07:32.919Z,99.90
2018-06-21T07:10:01.923Z,99.90
2018-06-21T07:12:30.893Z,99.90
2018-06-21T07:14:59.842Z,99.90
2018-06-21T07:17:28.856Z,99.90
2018-06-21T07:19:57.814Z,99.90
2018-06-21T07:22:26.805Z,99.90
2018-06-21T07:24:55.799Z,99.90
2018-06-21T07:27:24.796Z,99.90
2018-06-21T07:29:53.747Z,99.90
2018-06-21T07:32:22.813Z,99.90
2018-06-21T07:34:51.778Z,99.50
2018-06-21T07:37:20.945Z,98.40
2018-06-21T07:39:49.912Z,98.80
2018-06-21T07:42:18.935Z,97.50
2018-06-21T07:44:48.008Z,97.30
2018-06-21T07:47:17.010Z,96.60
2018-06-21T07:49:45.967Z,95.10
2018-06-21T07:52:14.975Z,93.40
2018-06-21T07:54:44.172Z,94.20
2018-06-21T07:57:13.173Z,95.80
2018-06-21T07:59:42.171Z,96.10
2018-06-21T08:02:11.188Z,95.40
2018-06-21T08:04:40.222Z,94.60
2018-06-21T08:07:09.194Z,95.30
2018-06-21T08:09:38.187Z,96.50
2018-06-21T08:12:07.392Z,97.50
2018-06-21T08:14:37.247Z,96.50
2018-06-21T08:17:06.567Z,95.80
2018-06-21T08:19:35.523Z,93.80
2018-06-21T08:22:04.666Z,94.60
2018-06-21T08:24:33.715Z,95.10
2018-06-21T08:27:02.751Z,95.90
2018-06-21T08:29:31.812Z,95.50
2018-06-21T08:32:00.807Z,94.00
2018-06-21T08:34:29.754Z,93.30
2018-06-21T08:36:58.703Z,92.10
2018-06-21T08:39:27.718Z,91.20
2018-06-21T08:41:56.734Z,90.90
2018-06-21T08:44:25.689Z,90.10
2018-06-21T08:46:54.888Z,88.90
2018-06-21T08:49:23.859Z,87.60
2018-06-21T08:51:52.859Z,86.70
2018-06-21T08:54:21.870Z,86.70
2018-06-21T08:56:50.893Z,88.70
2018-06-21T08:59:20.031Z,89.60
2018-06-21T09:01:49.187Z,90.90
2018-06-21T09:04:18.158Z,90.80
2018-06-21T09:06:47.179Z,91.50
2018-06-21T09:09:16.106Z,91.80
2018-06-21T09:11:45.067Z,92.80
2018-06-21T09:14:14.050Z,91.90
2018-06-21T09:16:43.055Z,92.10
2018-06-21T09:19:12.048Z,92.00
2018-06-21T09:21:41.146Z,91.10
2018-06-21T09:24:10.304Z,92.10
2018-06-21T09:26:39.301Z,92.30
2018-06-21T09:29:08.322Z,92.80
2018-06-21T09:31:37.518Z,93.40
2018-06-21T09:34:06.654Z,93.80
2018-06-21T09:36:38.802Z,93.70
2018-06-21T09:39:14.352Z,93.70
2018-06-21T09:41:48.711Z,93.20
2018-06-21T09:44:22.959Z,93.80
2018-06-21T09:46:57.420Z,93.60
2018-06-21T09:49:29.714Z,93.60
2018-06-21T09:52:00.394Z,93.80
2018-06-21T09:54:29.995Z,93.30
2018-06-21T09:56:59.282Z,93.40
2018-06-21T09:59:28.977Z,93.20
2018-06-21T10:01:57.947Z,93.40
2018-06-21T10:04:26.981Z,93.50
2018-06-21T10:06:55.935Z,93.50
2018-06-21T10:09:24.891Z,93.60
2018-06-21T10:11:53.890Z,93.40
2018-06-21T10:14:23.085Z,93.60
2018-06-21T10:16:52.315Z,93.80
2018-06-21T10:19:21.320Z,94.10
2018-06-21T10:21:50.270Z,94.00
2018-06-21T10:24:19.254Z,92.00
2018-06-21T10:26:48.299Z,92.60
2018-06-21T10:29:17.329Z,92.90
2018-06-21T10:31:46.363Z,93.70
2018-06-21T10:34:15.354Z,93.90
2018-06-21T10:36:44.414Z,94.50
2018-06-21T10:39:13.400Z,94.10
2018-06-21T10:41:42.494Z,93.90
2018-06-21T10:44:11.479Z,94.50
2018-06-21T10:46:40.573Z,94.80
2018-06-21T10:49:09.705Z,94.80
2018-06-21T10:51:38.968Z,94.60
2018-06-21T10:54:07.991Z,94.70
2018-06-21T10:56:36.953Z,94.40
2018-06-21T10:59:06.049Z,94.30
2018-06-21T11:01:35.029Z,93.60
2018-06-21T11:04:04.044Z,93.10
2018-06-21T11:06:33.047Z,88.50
2018-06-21T11:09:02.039Z,89.00
2018-06-21T11:11:31.068Z,88.10
2018-06-21T11:14:00.063Z,89.30
2018-06-21T11:16:29.026Z,89.60
2018-06-21T11:18:57.997Z,89.50
2018-06-21T11:21:27.111Z,87.30
2018-06-21T11:23:56.035Z,87.70
2018-06-21T11:26:25.047Z,88.30
2018-06-21T11:28:54.034Z,87.40
2018-06-21T11:31:23.006Z,88.40
2018-06-21T11:33:52.038Z,88.00
2018-06-21T11:36:21.058Z,90.00
2018-06-21T11:38:50.037Z,89.80
2018-06-21T11:41:19.055Z,89.60
2018-06-21T11:43:48.026Z,90.10
2018-06-21T11:46:17.046Z,89.50
2018-06-21T11:48:46.034Z,90.20
2018-06-21T11:51:15.029Z,87.90
2018-06-21T11:53:44.047Z,87.60
2018-06-21T11:56:13.043Z,85.80
2018-06-21T11:58:42.108Z,87.70
2018-06-21T12:01:11.023Z,86.60
2018-06-21T12:03:39.996Z,86.10
2018-06-21T12:06:08.996Z,86.90
2018-06-21T12:08:38.040Z,88.20
2018-06-21T12:11:06.955Z,87.60
2018-06-21T12:13:36.448Z,87.10
2018-06-21T12:16:05.446Z,86.40
2018-06-21T12:18:34.401Z,86.60
2018-06-21T12:21:03.342Z,86.90
2018-06-21T12:23:32.370Z,85.50
2018-06-21T12:26:01.342Z,84.80
2018-06-21T12:28:30.409Z,82.70
2018-06-21T12:30:59.414Z,83.50
2018-06-21T12:33:28.392Z,84.30
2018-06-21T12:35:57.346Z,85.60
2018-06-21T12:38:26.383Z,84.90
2018-06-21T12:40:55.372Z,85.80
2018-06-21T12:43:24.355Z,86.00
2018-06-21T12:45:53.327Z,87.60
2018-06-21T12:48:22.365Z,84.30
2018-06-21T12:50:51.383Z,84.90
2018-06-21T12:53:20.362Z,82.70
2018-06-21T12:55:49.324Z,81.00
2018-06-21T12:58:18.351Z,81.60
2018-06-21T13:00:47.390Z,81.10
2018-06-21T13:03:16.751Z,82.00
2018-06-21T13:05:45.711Z,83.10
2018-06-21T13:08:24.811Z,83.60
2018-06-21T13:11:05.110Z,82.90
2018-06-21T13:13:34.502Z,82.20
2018-06-21T13:16:04.209Z,83.60
2018-06-21T13:18:33.228Z,83.40
2018-06-21T13:21:02.198Z,82.30
2018-06-21T13:23:31.351Z,82.20
2018-06-21T13:26:00.335Z,82.90
2018-06-21T13:28:29.358Z,82.40
2018-06-21T13:30:58.411Z,79.50
2018-06-21T13:33:27.479Z,78.10
2018-06-21T13:35:56.468Z,80.90
2018-06-21T13:38:25.439Z,82.90
2018-06-21T13:40:54.414Z,83.90
2018-06-21T13:43:24.349Z,86.50
2018-06-21T13:45:53.298Z,91.10
2018-06-21T13:48:22.327Z,92.40
2018-06-21T13:50:51.306Z,93.50
2018-06-21T13:53:20.330Z,94.20
2018-06-21T13:55:49.325Z,94.80
2018-06-21T13:58:18.301Z,94.30
2018-06-21T14:00:47.326Z,93.10
2018-06-21T14:03:16.382Z,94.00
2018-06-21T14:05:46.539Z,95.10
2018-06-21T14:08:15.720Z,95.20
2018-06-21T14:10:44.695Z,94.90
2018-06-21T14:13:13.667Z,95.10
2018-06-21T14:15:43.281Z,95.80
2018-06-21T14:18:12.302Z,95.70
2018-06-21T14:20:41.329Z,95.50
2018-06-21T14:23:10.419Z,94.40
2018-06-21T14:25:39.402Z,93.80
2018-06-21T14:30:38.535Z,93.10
2018-06-21T14:33:07.628Z,92.40
2018-06-21T14:35:37.046Z,91.50
2018-06-21T14:38:06.007Z,92.50
2018-06-21T14:40:39.203Z,90.80
2018-06-21T14:43:08.199Z,91.10
2018-06-21T14:45:37.184Z,91.00
2018-06-21T14:48:06.439Z,90.70
2018-06-21T14:50:35.339Z,91.10
2018-06-21T14:53:04.386Z,91.10
2018-06-21T14:55:33.416Z,91.50
2018-06-21T14:58:02.477Z,91.90
2018-06-21T15:00:33.269Z,91.90
2018-06-21T15:03:02.367Z,91.90
2018-06-21T15:05:31.407Z,91.90
2018-06-21T15:08:00.371Z,92.20
2018-06-21T15:10:29.378Z,91.80
2018-06-21T15:12:58.902Z,91.70
2018-06-21T15:15:29.075Z,92.40
2018-06-21T15:17:58.086Z,92.30
2018-06-21T15:20:27.057Z,92.70
2018-06-21T15:22:56.098Z,92.80
2018-06-21T15:25:25.055Z,93.60
2018-06-21T15:27:54.022Z,93.60
2018-06-21T15:30:23.150Z,94.20
2018-06-21T15:32:52.117Z,94.10
2018-06-21T15:35:21.150Z,94.60
2018-06-21T15:37:50.162Z,93.70
2018-06-21T15:40:19.163Z,93.00
2018-06-21T15:42:48.202Z,92.80
2018-06-21T15:45:17.231Z,92.20
2018-06-21T15:47:46.199Z,91.20
2018-06-21T15:50:15.155Z,91.20
2018-06-21T15:52:44.210Z,91.30
2018-06-21T15:55:13.175Z,91.20
2018-06-21T15:57:42.194Z,92.10
2018-06-21T16:00:11.992Z,93.20
2018-06-21T16:02:41.681Z,93.70
2018-06-21T16:05:10.783Z,94.00
2018-06-21T16:07:39.818Z,94.10
2018-06-21T16:10:08.831Z,93.70
2018-06-21T16:12:37.779Z,94.10
2018-06-21T16:15:06.906Z,94.60
2018-06-21T16:17:35.867Z,94.40
2018-06-21T16:20:04.845Z,94.40
2018-06-21T16:22:33.812Z,94.10
2018-06-21T16:25:02.780Z,94.60
2018-06-21T16:27:32.554Z,94.10
2018-06-21T16:30:01.507Z,94.00
2018-06-21T16:32:30.462Z,93.70
2018-06-21T16:34:59.430Z,93.60
2018-06-21T16:37:28.416Z,92.60
2018-06-21T16:39:57.369Z,90.50
2018-06-21T16:42:26.470Z,88.50
2018-06-21T16:44:55.495Z,90.00
2018-06-21T16:47:24.501Z,88.30
2018-06-21T16:49:53.468Z,87.80
2018-06-21T16:52:22.809Z,81.40
2018-06-21T16:54:51.846Z,80.30
2018-06-21T16:57:20.802Z,79.80
2018-06-21T16:59:49.747Z,81.40
2018-06-21T17:02:18.802Z,81.10
2018-06-21T17:04:47.981Z,81.70
2018-06-21T17:07:16.991Z,81.90
2018-06-21T17:09:46.158Z,79.60
2018-06-21T17:12:15.172Z,78.80
2018-06-21T17:14:44.224Z,78.70
2018-06-21T17:17:13.212Z,80.00
2018-06-21T17:19:42.223Z,78.50
2018-06-21T17:22:11.192Z,79.70
2018-06-21T17:24:40.147Z,80.10
2018-06-21T17:27:09.224Z,80.80
2018-06-21T17:29:38.168Z,81.00
2018-06-21T17:32:07.117Z,80.90
2018-06-21T17:34:36.139Z,79.70
2018-06-21T17:37:05.369Z,80.60
2018-06-21T17:39:34.281Z,80.30
2018-06-21T17:42:03.287Z,78.30
2018-06-21T17:44:32.283Z,78.30
2018-06-21T17:47:01.231Z,78.00
2018-06-21T17:49:30.215Z,77.60
2018-06-21T17:51:59.226Z,77.30
2018-06-21T17:54:28.227Z,73.40
2018-06-21T17:56:57.311Z,73.00
2018-06-21T17:59:26.346Z,74.00
2018-06-21T18:01:55.471Z,74.10
2018-06-21T18:04:24.594Z,73.40
2018-06-21T18:06:53.634Z,72.30
2018-06-21T18:09:22.602Z,73.40
2018-06-21T18:11:51.869Z,72.40
2018-06-21T18:14:21.022Z,72.40
2018-06-21T18:16:50.007Z,72.40
2018-06-21T18:19:19.070Z,72.40
2018-06-21T18:21:49.077Z,72.80
2018-06-21T18:24:18.043Z,73.70
2018-06-21T18:26:47.218Z,74.80
2018-06-21T18:29:16.402Z,74.40
2018-06-21T18:31:45.418Z,74.10
2018-06-21T18:34:14.546Z,73.50
2018-06-21T18:36:43.537Z,73.50
2018-06-21T18:39:13.106Z,73.10
2018-06-21T18:41:42.586Z,73.10
2018-06-21T18:44:11.793Z,72.80
2018-06-21T18:46:40.754Z,73.00
2018-06-21T18:49:09.838Z,73.30
2018-06-21T18:51:38.857Z,72.60
2018-06-21T18:54:07.823Z,72.40
2018-06-21T18:56:36.845Z,72.00
2018-06-21T18:59:05.764Z,71.80
2018-06-21T19:01:35.012Z,71.80
2018-06-21T19:04:04.201Z,71.70
2018-06-21T19:06:38.495Z,71.40
2018-06-21T19:09:13.226Z,72.00
2018-06-21T19:11:47.585Z,71.60
2018-06-21T19:14:16.554Z,72.00
2018-06-21T19:16:45.837Z,71.60
2018-06-21T19:19:14.847Z,72.40
2018-06-21T19:21:43.841Z,71.90
2018-06-21T19:24:12.807Z,72.10
2018-06-21T19:26:41.925Z,72.10
2018-06-21T19:29:13.692Z,72.30
2018-06-21T19:31:44.013Z,71.60
2018-06-21T19:34:13.005Z,71.60
2018-06-21T19:36:42.172Z,71.60
2018-06-21T19:39:11.907Z,72.00
2018-06-21T19:41:40.911Z,71.90
2018-06-21T19:44:10.818Z,72.20
2018-06-21T19:46:39.813Z,72.20
2018-06-21T19:49:09.789Z,72.50
2018-06-21T19:51:38.702Z,72.40
2018-06-21T19:54:07.821Z,72.60
2018-06-21T19:56:36.763Z,72.40
2018-06-21T19:59:07.358Z,73.10
2018-06-21T20:01:37.686Z,73.00
2018-06-21T20:04:06.815Z,73.50
2018-06-21T20:06:35.798Z,73.00
2018-06-21T20:11:37.735Z,73.10
2018-06-21T20:14:06.826Z,73.30
2018-06-21T20:16:36.599Z,72.50
2018-06-21T20:21:36.858Z,72.10
2018-06-21T20:24:05.985Z,71.90
2018-06-21T20:26:35.174Z,72.10
2018-06-21T20:29:07.007Z,72.70
2018-06-21T20:31:36.429Z,72.80
2018-06-21T20:34:05.562Z,73.20
2018-06-21T20:36:34.675Z,73.50
2018-06-21T20:39:05.750Z,73.70
2018-06-21T20:41:36.102Z,74.10
2018-06-21T20:44:05.231Z,74.50
2018-06-21T20:46:34.563Z,74.50
2018-06-21T20:49:03.614Z,74.70
2018-06-21T20:51:32.630Z,74.60
2018-06-21T20:54:02.587Z,75.20
2018-06-21T20:56:31.699Z,76.30
2018-06-21T20:59:00.743Z,75.60
2018-06-21T21:01:29.769Z,75.60
2018-06-21T21:03:59.650Z,75.30
2018-06-21T21:06:28.694Z,75.60
2018-06-21T21:08:57.702Z,76.00
2018-06-21T21:11:26.672Z,76.20
2018-06-21T21:13:55.726Z,75.70
2018-06-21T21:16:24.707Z,75.80
2018-06-21T21:18:53.693Z,75.90
2018-06-21T21:21:22.738Z,75.60
2018-06-21T21:23:51.694Z,76.40
2018-06-21T21:26:20.695Z,76.00
2018-06-21T21:28:49.866Z,76.00
2018-06-21T21:31:18.914Z,76.40
2018-06-21T21:33:47.930Z,76.30
2018-06-21T21:36:16.987Z,76.00
2018-06-21T21:38:46.026Z,76.60
2018-06-21T21:41:15.020Z,76.90
2018-06-21T21:43:44.050Z,76.80
2018-06-21T21:46:13.015Z,77.30
2018-06-21T21:48:42.051Z,78.40
2018-06-21T21:51:11.171Z,79.20
2018-06-21T21:53:40.343Z,79.70
2018-06-21T21:56:09.310Z,79.10
2018-06-21T21:58:38.287Z,79.60
2018-06-21T22:01:07.239Z,80.00
2018-06-21T22:03:36.247Z,79.80
2018-06-21T22:06:05.227Z,79.60
2018-06-21T22:08:34.289Z,80.40
2018-06-21T22:11:03.398Z,80.60
2018-06-21T22:13:32.415Z,82.00
2018-06-21T22:16:01.400Z,81.50
2018-06-21T22:18:31.675Z,82.00
2018-06-21T22:21:00.643Z,82.60
2018-06-21T22:23:29.629Z,82.30
2018-06-21T22:25:58.634Z,84.40
2018-06-21T22:28:27.619Z,82.10
2018-06-21T22:30:56.710Z,82.70
2018-06-21T22:33:25.679Z,82.60
2018-06-21T22:35:54.698Z,82.20
2018-06-21T22:38:23.717Z,81.70
2018-06-21T22:40:52.761Z,82.00
2018-06-21T22:43:21.791Z,82.40
2018-06-21T22:45:50.771Z,82.10
2018-06-21T22:48:19.766Z,82.30
2018-06-21T22:50:48.772Z,82.70
2018-06-21T22:53:17.767Z,83.20
2018-06-21T22:55:46.735Z,83.60
2018-06-21T22:58:15.723Z,84.10
2018-06-21T23:00:45.054Z,84.80
2018-06-21T23:03:14.019Z,84.40
2018-06-21T23:05:43.003Z,85.00
2018-06-21T23:08:11.959Z,85.50
2018-06-21T23:10:41.085Z,85.70
2018-06-21T23:13:10.096Z,86.10
2018-06-21T23:15:39.103Z,86.10
2018-06-21T23:18:08.062Z,86.90
2018-06-21T23:20:37.022Z,86.80
2018-06-21T23:23:05.982Z,87.10
2018-06-21T23:25:34.990Z,87.20
2018-06-21T23:28:03.979Z,86.80
2018-06-21T23:30:32.965Z,87.40
2018-06-21T23:33:01.932Z,88.60
2018-06-21T23:35:30.954Z,87.00
2018-06-21T23:37:59.922Z,88.00
2018-06-21T23:40:28.897Z,87.70
2018-06-21T23:42:57.862Z,88.10
2018-06-21T23:45:26.831Z,88.50
2018-06-21T23:47:55.918Z,89.00
2018-06-21T23:50:24.890Z,89.10
2018-06-21T23:52:53.862Z,88.90
2018-06-21T23:55:22.856Z,89.30
2018-06-21T23:57:51.846Z,89.50
